Time;durP1;ratioP1;P1;durP2;ratioP2;P2;SDS_P1;SDS_P2;PMS_P1;PMS_P2;Temp;Humidity;BMP_temperature;BMP_pressure;BME280_temperature;BME280_humidity;BME280_pressure;Samples;Min_cycle;Max_cycle;Signal;HPM_P1;HPM_P2
2022/05/04 00:00:32;;;;;;;10.48;9.07;;;;;;;15.28;71.15;100540.94;4179942;28;20044;-56
2022/05/04 00:02:35;;;;;;;9.38;8.07;;;;;;;15.31;70.99;100540.06;4179956;28;20039;-56
2022/05/04 00:04:38;;;;;;;9.98;8.02;;;;;;;15.38;70.59;100535.69;4180313;28;20510;-56
2022/05/04 00:06:43;;;;;;;14.18;11.45;;;;;;;15.44;69.98;100538.28;4180111;28;20133;-55
2022/05/04 00:08:47;;;;;;;13.52;11.80;;;;;;;15.47;70.53;100535.63;4178152;28;20072;-56
2022/05/04 00:10:50;;;;;;;12.55;10.32;;;;;;;15.50;70.62;100527.75;4179256;28;20124;-56
2022/05/04 00:12:53;;;;;;;13.07;10.25;;;;;;;15.53;70.16;100532.97;4180495;28;20037;-56
2022/05/04 00:14:55;;;;;;;11.38;10.18;;;;;;;15.54;69.67;100526.88;4179848;28;20037;-56
2022/05/04 00:16:58;;;;;;;10.40;8.55;;;;;;;15.55;69.55;100523.38;4181429;28;20033;-56
2022/05/04 00:19:07;;;;;;;10.48;8.90;;;;;;;15.58;69.34;100527.69;4181138;28;20041;-56
2022/05/04 00:21:09;;;;;;;9.98;8.82;;;;;;;15.58;69.69;100519.84;4181155;28;20043;-56
2022/05/04 00:23:14;;;;;;;12.40;9.68;;;;;;;15.60;69.49;100521.59;4179701;28;20033;-56
2022/05/04 00:25:16;;;;;;;14.25;11.10;;;;;;;15.58;68.69;100522.47;4178726;28;20064;-56
2022/05/04 00:27:19;;;;;;;11.77;9.90;;;;;;;15.58;68.62;100520.75;4172783;28;20476;-56
2022/05/04 00:29:22;;;;;;;12.93;9.65;;;;;;;15.57;68.22;100515.50;4178940;28;20052;-56
2022/05/04 00:31:25;;;;;;;10.88;9.10;;;;;;;15.58;68.17;100515.50;4179655;28;20055;-56
2022/05/04 00:33:28;;;;;;;10.75;8.77;;;;;;;15.61;68.02;100512.84;4180106;28;20087;-56
2022/05/04 00:35:31;;;;;;;11.00;9.60;;;;;;;15.63;68.06;100524.19;4178842;28;20415;-56
2022/05/04 00:37:34;;;;;;;15.48;10.20;;;;;;;15.61;68.45;100512.84;4180398;28;20041;-56
2022/05/04 00:39:39;;;;;;;10.93;9.02;;;;;;;15.60;68.96;100520.72;4174942;28;20064;-56
2022/05/04 00:41:41;;;;;;;12.85;9.40;;;;;;;15.50;69.00;100520.75;4181410;28;20040;-56
2022/05/04 00:43:51;;;;;;;10.18;9.07;;;;;;;15.44;69.24;100519.94;4179816;28;20055;-56
2022/05/04 00:45:54;;;;;;;11.35;9.88;;;;;;;15.41;68.59;100519.94;4177948;28;20429;-56
2022/05/04 00:47:57;;;;;;;13.73;9.85;;;;;;;15.44;68.68;100520.78;4179779;28;20059;-56
2022/05/04 00:50:04;;;;;;;12.32;10.20;;;;;;;15.47;68.78;100520.78;4179298;28;20039;-56
2022/05/04 00:52:07;;;;;;;13.38;10.55;;;;;;;15.50;68.50;100519.91;4180912;28;20041;-56
2022/05/04 00:54:10;;;;;;;13.55;10.25;;;;;;;15.43;67.03;100523.41;4180599;28;20040;-56
2022/05/04 00:56:15;;;;;;;13.73;10.30;;;;;;;15.46;67.02;100523.41;4179297;28;20079;-56
2022/05/04 01:00:38;;;;;;;12.32;10.85;;;;;;;15.38;66.49;100519.97;4175554;28;20610;-56
2022/05/04 01:02:42;;;;;;;13.85;10.95;;;;;;;15.45;66.45;100524.28;4180452;28;20067;-56
2022/05/04 01:04:45;;;;;;;11.63;9.97;;;;;;;15.49;65.84;100520.75;4181448;28;20041;-56
2022/05/04 01:06:48;;;;;;;12.52;10.82;;;;;;;15.50;65.37;100528.63;4180423;28;20120;-56
2022/05/04 01:08:54;;;;;;;14.10;10.23;;;;;;;15.54;64.86;100532.09;4180421;28;20044;-56
2022/05/04 01:10:57;;;;;;;11.57;10.00;;;;;;;15.53;64.05;100519.88;4179886;28;20043;-55
2022/05/04 01:13:01;;;;;;;11.68;9.85;;;;;;;15.55;64.96;100520.75;4177908;28;20502;-55
2022/05/04 01:15:05;;;;;;;13.27;9.85;;;;;;;15.54;65.82;100522.47;4178799;28;20037;-55
2022/05/04 01:17:08;;;;;;;14.55;10.88;;;;;;;15.51;67.30;100526.88;4180350;28;20043;-56
2022/05/04 01:19:12;;;;;;;10.18;8.63;;;;;;;15.48;67.56;100529.53;4181423;28;20039;-56
2022/05/04 01:21:15;;;;;;;12.98;9.38;;;;;;;15.47;66.88;100530.41;4180721;28;20045;-56
2022/05/04 01:23:20;;;;;;;11.85;8.88;;;;;;;15.49;66.97;100536.47;4180813;28;20051;-56
2022/05/04 01:25:23;;;;;;;13.07;9.85;;;;;;;15.47;66.37;100535.63;4173756;28;20041;-56
2022/05/04 01:27:26;;;;;;;12.40;8.93;;;;;;;15.45;67.54;100533.03;4179966;28;20041;-56
2022/05/04 01:29:29;;;;;;;10.18;8.73;;;;;;;15.45;67.58;100529.50;4177576;28;20033;-56
2022/05/04 01:31:32;;;;;;;9.48;8.25;;;;;;;15.40;68.23;100529.53;4179026;28;20128;-56
2022/05/04 01:33:36;;;;;;;12.40;10.65;;;;;;;15.38;67.16;100530.44;4180082;28;20048;-56
2022/05/04 01:35:38;;;;;;;12.25;9.93;;;;;;;15.32;67.29;100537.44;4177690;28;20045;-56
2022/05/04 01:37:41;;;;;;;14.02;10.98;;;;;;;15.26;67.88;100532.22;4178478;28;20520;-56
2022/05/04 01:39:46;;;;;;;11.38;10.18;;;;;;;15.25;68.37;100530.47;4178448;28;20434;-56
2022/05/04 01:42:05;;;;;;;14.13;10.23;;;;;;;15.23;67.64;100532.25;4180008;28;20029;-56
2022/05/04 01:44:08;;;;;;;11.30;9.32;;;;;;;15.21;67.95;100536.59;4178980;28;20039;-56
2022/05/04 01:46:11;;;;;;;12.20;10.90;;;;;;;15.19;67.29;100535.75;4178970;28;20029;-56
2022/05/04 01:48:14;;;;;;;11.93;10.38;;;;;;;15.19;67.07;100541.84;4179934;28;20402;-56
2022/05/04 01:50:17;;;;;;;11.10;9.65;;;;;;;15.20;67.22;100540.13;4177277;28;20049;-56
2022/05/04 01:52:20;;;;;;;11.55;9.75;;;;;;;15.21;66.90;100539.22;4171083;28;20137;-56
2022/05/04 01:54:23;;;;;;;13.55;9.48;;;;;;;15.19;67.68;100546.22;4179926;28;20053;-56
2022/05/04 01:56:27;;;;;;;13.10;10.27;;;;;;;15.16;68.64;100546.25;4178657;28;20047;-56
2022/05/04 01:58:30;;;;;;;12.57;8.93;;;;;;;15.09;68.27;100550.59;4177918;28;20461;-56
2022/05/04 02:00:33;;;;;;;11.23;9.10;;;;;;;15.08;68.02;100546.25;4177957;28;20545;-56
2022/05/04 02:02:37;;;;;;;11.90;8.15;;;;;;;15.07;67.63;100546.25;4175703;28;20490;-56
2022/05/04 02:04:41;;;;;;;11.80;9.77;;;;;;;15.03;67.52;100552.41;4179759;28;20037;-56
2022/05/04 02:06:44;;;;;;;12.85;10.40;;;;;;;14.98;68.00;100542.78;4179136;28;20047;-56
2022/05/04 02:08:47;;;;;;;11.63;9.93;;;;;;;14.91;69.08;100541.06;4179988;28;20383;-56
2022/05/04 02:10:50;;;;;;;11.90;10.38;;;;;;;14.93;68.03;100548.91;4177980;28;20037;-56
2022/05/04 02:12:54;;;;;;;10.98;9.73;;;;;;;14.93;68.64;100546.28;4179848;28;20044;-56
2022/05/04 02:14:58;;;;;;;11.40;9.68;;;;;;;14.89;67.77;100541.94;4179712;28;20041;-56
2022/05/04 02:17:01;;;;;;;12.30;10.98;;;;;;;14.89;67.75;100542.78;4178072;28;20423;-56
2022/05/04 02:19:04;;;;;;;12.10;10.87;;;;;;;14.86;67.99;100553.28;4179856;28;20052;-56
2022/05/04 02:21:08;;;;;;;12.07;10.00;;;;;;;14.84;67.56;100544.56;4177900;28;20653;-56
2022/05/04 02:23:11;;;;;;;12.05;10.45;;;;;;;14.83;68.68;100546.34;4177336;28;20044;-56
2022/05/04 02:25:14;;;;;;;13.27;10.43;;;;;;;14.86;68.04;100541.94;4179734;28;20051;-56
2022/05/04 02:27:17;;;;;;;12.48;10.07;;;;;;;14.83;68.26;100541.09;4178906;28;20061;-56
2022/05/04 02:29:21;;;;;;;12.77;11.40;;;;;;;14.85;67.42;100546.31;4176178;28;20033;-56
2022/05/04 02:31:24;;;;;;;13.82;10.65;;;;;;;14.79;67.03;100538.47;4179116;28;20041;-56
2022/05/04 02:33:27;;;;;;;12.70;10.18;;;;;;;14.79;67.48;100538.47;4178386;28;20509;-56
2022/05/04 02:37:59;;;;;;;14.13;10.02;;;;;;;14.71;68.90;100545.47;4173153;28;20682;-56
2022/05/04 02:40:02;;;;;;;11.85;10.63;;;;;;;14.65;67.95;100544.59;4178771;28;20056;-56
2022/05/04 02:42:06;;;;;;;12.05;10.50;;;;;;;14.56;67.72;100543.69;4175063;28;20137;-56
2022/05/04 02:44:09;;;;;;;12.50;9.70;;;;;;;14.51;67.81;100543.69;4178272;28;20094;-56
2022/05/04 02:46:14;;;;;;;12.20;10.60;;;;;;;14.51;67.67;100538.47;4177072;28;20385;-56
2022/05/04 02:48:17;;;;;;;11.85;10.13;;;;;;;14.52;67.83;100545.44;4179080;28;20517;-56
2022/05/04 02:50:20;;;;;;;11.90;10.65;;;;;;;14.58;66.96;100542.81;4179918;28;20087;-56
2022/05/04 02:52:23;;;;;;;11.95;10.50;;;;;;;14.59;66.80;100539.34;4177229;28;20501;-56
2022/05/04 02:54:26;;;;;;;11.55;9.20;;;;;;;14.62;65.62;100539.38;4172084;28;20381;-56
2022/05/04 02:56:29;;;;;;;10.98;9.20;;;;;;;14.62;64.64;100544.59;4179264;28;20556;-56
2022/05/04 02:58:32;;;;;;;14.02;9.88;;;;;;;14.65;64.75;100544.59;4178918;28;20506;-56
2022/05/04 03:00:35;;;;;;;13.98;10.95;;;;;;;14.68;65.24;100548.09;4178850;28;20037;-56
2022/05/04 03:02:38;;;;;;;15.07;11.48;;;;;;;14.71;65.28;100554.19;4178956;28;20045;-56
2022/05/04 03:04:41;;;;;;;14.18;10.40;;;;;;;14.73;62.75;100539.34;4178168;28;20087;-56
2022/05/04 03:06:44;;;;;;;14.85;10.95;;;;;;;14.74;62.89;100542.84;4175667;28;20494;-56
2022/05/04 03:08:47;;;;;;;14.55;9.75;;;;;;;14.76;60.44;100546.31;4176951;28;20033;-56
2022/05/04 03:13:10;;;;;;;13.73;8.90;;;;;;;14.71;60.00;100545.47;4180945;28;20465;-56
2022/05/04 03:15:13;;;;;;;13.43;9.35;;;;;;;14.74;58.82;100540.22;4181690;28;20518;-56
2022/05/04 03:17:18;;;;;;;11.75;9.07;;;;;;;14.69;60.38;100541.97;4182028;28;20119;-56
2022/05/04 03:19:23;;;;;;;11.63;8.63;;;;;;;14.71;60.36;100541.09;4189706;28;20043;-56
2022/05/04 03:21:29;;;;;;;14.00;9.35;;;;;;;14.70;60.08;100543.72;4180656;28;20164;-56
2022/05/04 03:23:32;;;;;;;15.18;8.95;;;;;;;14.70;61.12;100543.72;4179630;28;20033;-56
2022/05/04 03:25:34;;;;;;;11.27;9.43;;;;;;;14.66;62.79;100541.09;4181453;28;20107;-56
2022/05/04 03:27:37;;;;;;;11.63;8.65;;;;;;;14.65;64.05;100552.44;4182082;28;20132;-55
2022/05/04 03:29:40;;;;;;;10.95;9.43;;;;;;;14.58;65.10;100540.19;4181463;28;20041;-56
2022/05/04 03:31:43;;;;;;;10.38;8.77;;;;;;;14.55;65.92;100540.22;4177743;28;20148;-56
2022/05/04 03:33:46;;;;;;;10.93;8.48;;;;;;;14.53;65.31;100539.34;4177237;28;20401;-56
2022/05/04 03:35:51;;;;;;;15.15;8.85;;;;;;;14.53;65.04;100544.59;4180628;28;20041;-56
2022/05/04 03:37:54;;;;;;;10.57;8.73;;;;;;;14.51;64.60;100548.94;4181760;28;20025;-56
2022/05/04 03:39:57;;;;;;;9.98;8.60;;;;;;;14.46;64.77;100542.84;4180413;28;20442;-56
2022/05/04 03:42:00;;;;;;;12.60;8.52;;;;;;;14.46;65.03;100537.63;4181537;28;20075;-56
2022/05/04 03:44:04;;;;;;;8.85;7.70;;;;;;;14.47;64.66;100539.34;4179798;28;20041;-56
2022/05/04 03:46:15;;;;;;;9.43;8.10;;;;;;;14.44;62.95;100534.09;4180052;28;20132;-56
2022/05/04 03:48:18;;;;;;;10.18;8.45;;;;;;;14.38;63.17;100537.59;4181941;28;20037;-56
2022/05/04 03:50:21;;;;;;;12.02;8.70;;;;;;;14.40;62.52;100537.63;4173401;28;20037;-56
2022/05/04 03:52:25;;;;;;;15.18;9.50;;;;;;;14.40;61.63;100537.63;4176924;28;20041;-56
2022/05/04 03:54:28;;;;;;;13.07;9.75;;;;;;;14.41;59.22;100541.97;4180367;28;20049;-56
2022/05/04 03:56:31;;;;;;;10.48;8.50;;;;;;;14.41;59.65;100539.34;4179586;28;20049;-56
2022/05/04 03:58:34;;;;;;;14.02;8.98;;;;;;;14.46;58.70;100542.84;4181645;28;20398;-56
2022/05/04 04:00:37;;;;;;;11.80;9.15;;;;;;;14.44;58.62;100544.56;4179469;28;20600;-56
2022/05/04 04:02:40;;;;;;;11.95;9.75;;;;;;;14.43;58.97;100548.06;4179880;28;20521;-56
2022/05/04 04:04:43;;;;;;;10.75;8.23;;;;;;;14.41;58.95;100555.94;4180505;28;20433;-56
2022/05/04 04:06:46;;;;;;;15.15;9.50;;;;;;;14.44;59.24;100557.66;4182653;28;20041;-56
2022/05/04 04:08:50;;;;;;;13.15;9.30;;;;;;;14.45;58.10;100556.78;4181156;28;20033;-56
2022/05/04 04:10:53;;;;;;;12.52;8.90;;;;;;;14.41;58.50;100555.03;4181533;28;20128;-57
2022/05/04 04:12:56;;;;;;;13.88;8.20;;;;;;;14.37;58.50;100548.94;4178999;28;20091;-57
2022/05/04 04:14:59;;;;;;;14.00;8.60;;;;;;;14.42;57.25;100555.03;4179437;28;20120;-56
2022/05/04 04:17:02;;;;;;;10.55;8.73;;;;;;;14.42;56.93;100557.66;4182486;28;20124;-57
2022/05/04 04:19:04;;;;;;;12.45;8.10;;;;;;;14.37;57.38;100563.75;4180222;28;20112;-57
2022/05/04 04:23:28;;;;;;;9.40;8.02;;;;;;;14.39;56.71;100564.63;4171998;28;20467;-56
2022/05/04 04:25:32;;;;;;;13.52;8.07;;;;;;;14.39;56.41;100562.88;4176517;28;20036;-58
2022/05/04 04:27:35;;;;;;;12.25;8.95;;;;;;;14.36;56.19;100567.25;4179343;28;20037;-58
2022/05/04 04:29:38;;;;;;;12.20;8.20;;;;;;;14.35;55.88;100571.59;4160949;28;20049;-58
2022/05/04 04:31:41;;;;;;;12.98;8.25;;;;;;;14.32;56.75;100575.09;4176882;28;20039;-58
2022/05/04 04:33:44;;;;;;;10.15;7.95;;;;;;;14.34;55.91;100574.22;4180856;28;20486;-57
2022/05/04 04:35:47;;;;;;;13.35;8.57;;;;;;;14.30;56.05;100568.13;4179535;28;20729;-57
2022/05/04 04:37:49;;;;;;;15.35;8.00;;;;;;;14.35;55.35;100573.34;4174479;28;20125;-57
2022/05/04 04:39:52;;;;;;;13.10;8.02;;;;;;;14.38;55.19;100568.97;4176746;28;20063;-57
2022/05/04 04:41:57;;;;;;;10.02;7.97;;;;;;;14.29;54.86;100575.09;4181904;28;20114;-56
2022/05/04 04:44:00;;;;;;;11.68;8.35;;;;;;;14.29;54.80;100571.59;4164360;28;20418;-56
2022/05/04 04:46:03;;;;;;;10.23;7.93;;;;;;;14.30;54.65;100576.81;4165999;28;20080;-56
2022/05/04 04:48:07;;;;;;;12.43;8.80;;;;;;;14.26;55.62;100577.69;4165414;28;20041;-56
2022/05/04 04:50:10;;;;;;;10.15;7.65;;;;;;;14.23;55.01;100575.06;4165161;28;20538;-56
2022/05/04 04:52:13;;;;;;;9.85;7.60;;;;;;;14.32;55.25;100575.09;4167531;28;20128;-56
2022/05/04 04:54:15;;;;;;;10.90;8.15;;;;;;;14.31;54.73;100582.94;4181686;28;20037;-57
2022/05/04 04:56:18;;;;;;;9.35;7.53;;;;;;;14.23;54.79;100584.69;4180766;28;20079;-56
2022/05/04 04:58:22;;;;;;;13.43;8.75;;;;;;;14.25;54.60;100588.16;4180408;28;20593;-56
2022/05/04 05:00:25;;;;;;;11.43;7.70;;;;;;;14.25;54.66;100586.44;4181537;28;20041;-56
2022/05/04 05:02:28;;;;;;;10.98;8.13;;;;;;;14.12;54.85;100596.00;4181619;28;20071;-57
2022/05/04 05:04:31;;;;;;;13.15;7.95;;;;;;;14.06;55.13;100600.31;4181534;28;20056;-56
2022/05/04 05:06:34;;;;;;;11.52;7.55;;;;;;;14.05;55.83;100601.22;4181735;28;20041;-56
2022/05/04 05:08:37;;;;;;;9.98;7.78;;;;;;;14.14;55.55;100603.84;4181741;28;20124;-57
2022/05/04 05:10:40;;;;;;;16.45;7.63;;;;;;;14.11;55.18;100603.84;4181117;28;20462;-56
2022/05/04 05:12:43;;;;;;;10.05;7.18;;;;;;;14.10;55.41;100596.84;4181437;28;20033;-56
2022/05/04 05:17:22;;;;;;;10.15;7.47;;;;;;;14.23;54.85;100603.84;4163143;28;20045;-57
2022/05/04 05:19:25;;;;;;;11.05;8.48;;;;;;;14.26;55.00;100606.47;4163092;28;20518;-56
2022/05/04 05:21:29;;;;;;;20.98;11.23;;;;;;;14.12;54.88;100603.84;4162489;28;20172;-58
2022/05/04 05:23:32;;;;;;;12.45;8.02;;;;;;;14.05;55.83;100615.16;4180348;28;20060;-58
2022/05/04 05:25:35;;;;;;;9.60;8.18;;;;;;;14.06;56.11;100605.56;4181329;28;20430;-58
2022/05/04 05:27:37;;;;;;;12.68;9.23;;;;;;;13.94;56.05;100612.53;4181383;28;20045;-58
2022/05/04 05:29:40;;;;;;;12.85;8.65;;;;;;;14.05;56.37;100615.16;4181211;28;20072;-58
2022/05/04 05:31:45;;;;;;;16.33;8.48;;;;;;;14.08;55.62;100607.31;4179232;28;20459;-58
2022/05/04 05:33:48;;;;;;;9.13;7.72;;;;;;;14.08;55.39;100615.16;4180884;28;20029;-57
2022/05/04 05:35:51;;;;;;;9.27;7.60;;;;;;;14.10;55.88;100618.63;4181164;28;20410;-58
2022/05/04 05:37:54;;;;;;;9.55;7.80;;;;;;;14.10;55.81;100623.00;4179939;28;20426;-58
2022/05/04 05:39:57;;;;;;;10.85;8.43;;;;;;;14.06;56.23;100622.13;4180826;28;20449;-58
2022/05/04 05:42:00;;;;;;;11.18;8.32;;;;;;;14.14;55.54;100623.00;4180861;28;20044;-58
2022/05/04 05:44:03;;;;;;;12.75;8.23;;;;;;;14.04;56.05;100617.75;4181180;28;20037;-58
2022/05/04 05:46:06;;;;;;;10.90;8.25;;;;;;;14.12;55.68;100616.91;4181094;28;20135;-59
2022/05/04 05:48:10;;;;;;;10.65;7.95;;;;;;;14.08;56.35;100627.34;4179807;28;20045;-57
2022/05/04 05:50:13;;;;;;;11.77;8.75;;;;;;;14.12;55.66;100622.13;4180506;28;20494;-58
2022/05/04 05:52:16;;;;;;;9.50;7.82;;;;;;;14.14;55.43;100625.63;4180949;28;20044;-58
2022/05/04 05:54:19;;;;;;;10.70;7.90;;;;;;;14.13;55.95;100628.22;4181099;28;20417;-58
2022/05/04 05:56:22;;;;;;;13.57;7.97;;;;;;;14.16;56.15;100624.75;4163225;28;20041;-58
2022/05/04 05:58:25;;;;;;;12.13;8.02;;;;;;;14.15;56.08;100621.28;4180724;28;20037;-58
2022/05/04 06:00:28;;;;;;;11.43;8.57;;;;;;;14.22;55.60;100633.50;4179065;28;20041;-58
2022/05/04 06:02:33;;;;;;;12.45;8.15;;;;;;;14.32;55.95;100629.13;4180912;28;20079;-58
2022/05/04 06:04:38;;;;;;;12.90;8.50;;;;;;;14.38;55.35;100621.28;4180639;28;20038;-58
2022/05/04 06:06:41;;;;;;;12.02;8.35;;;;;;;14.34;55.67;100635.25;4179367;28;20059;-58
2022/05/04 06:08:44;;;;;;;15.25;7.70;;;;;;;14.34;55.51;100629.13;4180717;28;20073;-58
2022/05/04 06:10:46;;;;;;;11.88;8.20;;;;;;;14.32;56.15;100631.75;4180641;28;20498;-58
2022/05/04 06:12:49;;;;;;;11.45;8.68;;;;;;;14.39;55.79;100635.25;4180825;28;20509;-58
2022/05/04 06:14:52;;;;;;;10.80;8.30;;;;;;;14.26;56.50;100640.44;4179760;28;20041;-58
2022/05/04 06:16:55;;;;;;;14.52;8.70;;;;;;;14.39;55.54;100633.50;4180756;28;20127;-58
2022/05/04 06:18:58;;;;;;;13.15;8.50;;;;;;;14.36;55.60;100635.25;4180373;28;20398;-58
2022/05/04 06:21:02;;;;;;;9.82;8.70;;;;;;;14.31;56.17;100643.09;4180239;28;20048;-58
2022/05/04 06:23:06;;;;;;;14.45;8.57;;;;;;;14.36;56.31;100645.72;4179527;28;20052;-58
2022/05/04 06:25:09;;;;;;;13.23;9.05;;;;;;;14.34;55.94;100644.81;4180649;28;20041;-58
2022/05/04 06:27:12;;;;;;;16.30;10.27;;;;;;;14.36;57.05;100650.94;4180591;28;20075;-58
2022/05/04 06:29:15;;;;;;;13.77;9.88;;;;;;;14.44;56.47;100650.09;4180394;28;20033;-58
2022/05/04 08:04:25;;;;;;;11.65;7.50;;;;;;;16.38;50.38;100654.03;4179911;28;20035;-58
2022/05/04 08:06:28;;;;;;;13.00;7.68;;;;;;;16.53;49.99;100652.19;4171435;28;20045;-58
2022/05/04 08:08:31;;;;;;;11.50;8.57;;;;;;;16.43;50.26;100658.34;4166219;28;20041;-58
2022/05/04 08:10:37;;;;;;;12.57;7.40;;;;;;;16.35;50.86;100656.66;4164777;28;20068;-58
2022/05/04 08:12:40;;;;;;;13.52;7.75;;;;;;;16.36;50.00;100654.91;4166109;28;20041;-58
2022/05/04 08:14:43;;;;;;;14.25;8.13;;;;;;;16.60;50.16;100658.22;4164877;28;20499;-58
2022/05/04 08:16:46;;;;;;;14.25;8.80;;;;;;;16.80;49.68;100661.56;4179263;28;20044;-58
2022/05/04 08:18:52;;;;;;;11.07;8.68;;;;;;;16.89;49.28;100650.16;4180981;28;20096;-56
2022/05/04 08:20:56;;;;;;;22.95;9.23;;;;;;;17.01;49.64;100643.91;4182110;28;20040;-57
2022/05/04 08:22:59;;;;;;;13.07;7.70;;;;;;;17.15;49.18;100647.28;4180928;28;20064;-57
2022/05/04 08:25:03;;;;;;;9.10;7.38;;;;;;;17.28;48.38;100658.53;4182184;28;20041;-57
2022/05/04 08:27:06;;;;;;;12.55;7.70;;;;;;;17.27;48.53;100659.41;4165708;28;20436;-57
2022/05/04 08:29:09;;;;;;;9.68;7.47;;;;;;;17.29;48.69;100657.66;4164546;28;20049;-57
2022/05/04 08:31:14;;;;;;;10.80;7.68;;;;;;;17.33;48.79;100656.72;4173087;28;20055;-57
2022/05/04 08:33:18;;;;;;;;;;;;;;;17.56;48.58;100664.34;4182567;28;20087;-57
2022/05/04 08:35:21;;;;;;;8.55;6.45;;;;;;;17.72;47.11;100658.94;4182268;28;20439;-57
2022/05/04 08:37:27;;;;;;;11.50;7.28;;;;;;;17.76;46.45;100655.38;4182233;28;20054;-57
2022/05/04 08:39:29;;;;;;;10.02;7.03;;;;;;;17.54;47.08;100663.50;4181940;28;20040;-57
2022/05/04 08:41:36;;;;;;;11.10;7.10;;;;;;;17.49;47.88;100661.81;4180387;28;20056;-57
2022/05/04 08:43:40;;;;;;;13.85;7.55;;;;;;;17.45;47.72;100661.84;4178480;28;20037;-57
2022/05/04 08:45:43;;;;;;;10.10;6.55;;;;;;;17.30;48.92;100669.03;4179610;28;20128;-57
2022/05/04 08:47:46;;;;;;;14.57;8.48;;;;;;;17.50;47.48;100660.94;4182096;28;20033;-57
2022/05/04 08:49:49;;;;;;;11.77;7.60;;;;;;;17.43;47.57;100663.66;4180289;28;20037;-57
2022/05/04 08:51:56;;;;;;;13.20;7.93;;;;;;;17.34;48.68;100662.88;4180407;28;20087;-57
2022/05/04 08:54:00;;;;;;;10.52;6.68;;;;;;;17.26;49.14;100660.31;4181836;28;20044;-57
2022/05/04 08:56:03;;;;;;;11.05;7.32;;;;;;;17.33;49.21;100664.59;4181950;28;20557;-57
2022/05/04 08:58:09;;;;;;;11.30;7.35;;;;;;;17.54;48.36;100662.66;4181961;28;20371;-57
2022/05/04 09:00:14;;;;;;;10.65;7.32;;;;;;;17.53;48.38;100666.16;4181312;28;20041;-57
2022/05/04 09:02:16;;;;;;;8.27;5.72;;;;;;;17.73;48.70;100664.16;4181548;28;20051;-57
2022/05/04 09:04:19;;;;;;;14.65;8.18;;;;;;;17.88;47.37;100660.47;4181702;28;20037;-57
2022/05/04 09:06:27;;;;;;;9.82;7.80;;;;;;;18.00;47.37;100663.88;4181335;28;20040;-57
2022/05/04 09:08:30;;;;;;;11.60;8.52;;;;;;;18.12;46.42;100664.59;4181148;28;20044;-57
2022/05/04 09:10:38;;;;;;;11.05;8.55;;;;;;;18.01;47.37;100660.38;4180869;28;20090;-57
2022/05/04 09:12:42;;;;;;;11.88;8.20;;;;;;;18.12;47.44;100664.59;4181565;28;20049;-57
2022/05/04 09:14:46;;;;;;;9.50;6.28;;;;;;;18.07;46.95;100663.75;4181604;28;20413;-57
2022/05/04 09:16:49;;;;;;;8.90;6.97;;;;;;;18.06;48.07;100661.16;4181578;28;20043;-57
2022/05/04 09:18:52;;;;;;;11.20;6.85;;;;;;;18.05;48.17;100662.91;4181573;28;20033;-57
2022/05/04 09:20:55;;;;;;;12.73;8.35;;;;;;;18.37;46.96;100653.72;4179460;28;20128;-57
2022/05/04 09:22:58;;;;;;;14.02;8.48;;;;;;;18.35;47.39;100662.50;4180227;28;20091;-57
2022/05/04 09:25:01;;;;;;;12.95;7.50;;;;;;;18.10;47.10;100660.22;4181264;28;20048;-57
2022/05/04 09:27:10;;;;;;;9.60;7.43;;;;;;;18.00;47.99;100662.09;4181339;28;20033;-57
2022/05/04 09:29:15;;;;;;;14.50;7.72;;;;;;;17.94;48.57;100665.69;4180296;28;20055;-57
2022/05/04 09:31:20;;;;;;;11.23;7.40;;;;;;;17.88;48.59;100659.63;4180658;28;20037;-57
2022/05/04 09:33:26;;;;;;;;;;;;;;;17.72;48.16;100654.53;4180753;28;20402;-57
2022/05/04 09:35:33;;;;;;;10.43;7.93;;;;;;;17.70;48.51;100655.47;4181331;28;19920;-57
2022/05/04 09:44:57;;;;;;;11.38;8.70;;;;;;;18.28;47.26;100645.94;4181060;28;20127;-57
2022/05/04 09:47:00;;;;;;;11.00;7.88;;;;;;;18.22;48.52;100638.13;4181116;28;20044;-57
2022/05/04 09:49:11;;;;;;;13.27;8.85;;;;;;;18.34;48.72;100637.97;4181039;28;20339;-57
2022/05/04 09:51:14;;;;;;;17.75;8.55;;;;;;;18.37;47.77;100639.66;4180525;28;20041;-57
2022/05/04 09:53:27;;;;;;;13.10;7.97;;;;;;;18.37;47.27;100637.91;4181037;28;20068;-57
2022/05/04 09:55:30;;;;;;;10.82;9.30;;;;;;;18.12;48.23;100635.63;4179996;28;20350;-57
2022/05/04 09:57:34;;;;;;;11.43;9.90;;;;;;;17.99;49.19;100636.72;4179686;28;20041;-57
2022/05/04 09:59:37;;;;;;;12.32;9.68;;;;;;;17.95;49.61;100637.63;4180747;28;20043;-57
2022/05/04 10:01:44;;;;;;;11.05;8.23;;;;;;;18.04;48.99;100634.00;4179051;28;20039;-57
2022/05/04 10:03:50;;;;;;;11.98;7.80;;;;;;;18.09;48.72;100638.31;4179734;28;20059;-57
2022/05/04 10:05:55;;;;;;;11.57;7.57;;;;;;;18.17;48.53;100639.97;4181100;28;20033;-57
2022/05/04 10:07:58;;;;;;;13.43;9.15;;;;;;;18.09;48.81;100633.06;4179369;28;20037;-57
2022/05/04 10:10:01;;;;;;;14.35;9.88;;;;;;;18.03;48.97;100634.88;4180395;28;20457;-57
2022/05/04 10:12:06;;;;;;;16.20;9.27;;;;;;;17.93;49.03;100631.50;4180749;28;20131;-57
2022/05/04 10:14:13;;;;;;;11.18;7.97;;;;;;;17.88;49.21;100622.78;4179478;28;20073;-57
2022/05/04 10:16:16;;;;;;;13.30;8.98;;;;;;;17.93;48.93;100627.13;4179522;28;20123;-57
2022/05/04 10:18:24;;;;;;;14.45;8.73;;;;;;;17.90;50.49;100632.44;4178857;28;20383;-57
2022/05/04 10:20:33;;;;;;;14.30;8.98;;;;;;;18.11;49.94;100620.72;4180478;28;20032;-57
2022/05/04 10:22:40;;;;;;;15.52;9.50;;;;;;;17.92;52.37;100621.91;4179133;28;20045;-57
2022/05/04 10:24:45;;;;;;;13.30;8.57;;;;;;;17.95;53.54;100627.13;4180742;28;20049;-57
2022/05/04 10:27:02;;;;;;;11.07;7.43;;;;;;;18.02;54.37;100622.63;4180152;28;20071;-57
2022/05/04 10:31:53;;;;;;;12.07;8.48;;;;;;;18.11;54.47;100611.97;4180555;28;20482;-57
2022/05/04 10:33:57;;;;;;;16.98;9.75;;;;;;;18.06;53.41;100614.69;4179167;28;20041;-57
2022/05/04 10:36:19;;;;;;;13.90;8.60;;;;;;;17.98;51.66;100611.28;4180384;28;20036;-57
2022/05/04 10:38:33;;;;;;;13.30;9.65;;;;;;;18.09;51.49;100616.38;4162788;28;20072;-57
2022/05/04 10:40:37;;;;;;;11.07;8.45;;;;;;;18.07;50.98;100608.50;4180182;28;20037;-57
2022/05/04 10:42:56;;;;;;;;;;;;;;;18.00;50.89;100614.75;4180944;28;20540;-56
2022/05/04 10:45:01;;;;;;;10.70;7.72;;;;;;;18.26;50.38;100609.09;4180155;28;20294;-57
2022/05/04 10:47:04;;;;;;;17.13;9.90;;;;;;;18.55;50.02;100604.28;4180759;28;20384;-57
2022/05/04 10:49:10;;;;;;;10.70;8.35;;;;;;;18.65;49.52;100608.50;4180287;28;20048;-57
2022/05/04 10:51:21;;;;;;;8.48;7.45;;;;;;;18.68;51.52;100597.91;4180034;28;20041;-57
2022/05/04 10:53:37;;;;;;;14.75;10.27;;;;;;;18.73;49.00;100603.97;4180295;28;20374;-57
2022/05/04 10:55:40;;;;;;;12.60;8.90;;;;;;;19.03;48.18;100596.47;4180224;28;20056;-57
2022/05/04 10:57:43;;;;;;;11.82;8.98;;;;;;;19.21;49.10;100589.09;4180298;28;20040;-57
2022/05/04 11:00:10;;;;;;;18.92;11.75;;;;;;;19.69;45.07;100596.91;4178696;28;20045;-57
2022/05/04 11:02:19;;;;;;;16.10;9.90;;;;;;;19.81;45.40;100591.38;4179078;28;20375;-57
2022/05/04 11:04:23;;;;;;;15.40;10.82;;;;;;;19.83;45.06;100586.97;4179376;28;20051;-57
2022/05/04 11:06:29;;;;;;;20.50;12.10;;;;;;;20.09;43.97;100587.25;4179887;28;20033;-57
2022/05/04 11:08:36;;;;;;;14.23;10.65;;;;;;;20.17;44.05;100587.97;4180501;28;20045;-57
2022/05/04 11:10:39;;;;;;;13.07;10.80;;;;;;;20.11;44.35;100577.56;4179870;28;20136;-57
2022/05/04 11:12:42;;;;;;;14.63;12.15;;;;;;;20.23;43.67;100579.88;4180221;28;20061;-57
2022/05/04 11:14:45;;;;;;;17.92;13.07;;;;;;;20.26;43.62;100576.31;4178929;28;20086;-57
2022/05/04 11:16:50;;;;;;;15.38;11.68;;;;;;;20.13;44.06;100573.94;4180172;28;20086;-57
2022/05/04 11:18:54;;;;;;;13.90;11.52;;;;;;;20.11;44.44;100572.28;4180237;28;20049;-57
2022/05/04 11:20:57;;;;;;;17.65;11.88;;;;;;;20.08;45.03;100564.41;4179727;28;20044;-57
2022/05/04 11:22:59;;;;;;;19.23;13.07;;;;;;;20.28;44.98;100566.56;4180116;28;20095;-57
2022/05/04 11:25:03;;;;;;;19.10;13.27;;;;;;;20.35;43.93;100561.09;4179727;28;20616;-57